createdAt,value
2018-10-11T00:02:27.293Z,6.30
2018-10-11T00:04:55.318Z,7.23
2018-10-11T00:07:23.144Z,7.30
2018-10-11T00:09:50.830Z,5.27
2018-10-11T00:12:18.484Z,7.20
2018-10-11T00:14:46.064Z,5.03
2018-10-11T00:17:13.756Z,5.00
2018-10-11T00:19:41.380Z,6.00
2018-10-11T00:22:09.060Z,5.97
2018-10-11T00:24:36.706Z,6.53
2018-10-11T00:27:04.337Z,7.73
2018-10-11T00:29:31.978Z,8.40
2018-10-11T00:31:59.677Z,4.60
2018-10-11T00:34:27.332Z,6.30
2018-10-11T00:36:54.998Z,5.23
2018-10-11T00:39:22.713Z,7.13
2018-10-11T00:41:50.380Z,6.23
2018-10-11T00:44:18.088Z,4.83
2018-10-11T00:46:47.071Z,4.97
2018-10-11T00:49:14.767Z,30.67
2018-10-11T00:51:42.401Z,14.40
2018-10-11T00:54:10.064Z,3.90
2018-10-11T00:56:38.080Z,5.03
2018-10-11T00:59:05.794Z,4.67
2018-10-11T01:01:33.475Z,5.47
2018-10-11T01:04:01.130Z,5.97
2018-10-11T01:06:28.784Z,6.63
2018-10-11T01:08:56.475Z,6.07
2018-10-11T01:11:24.059Z,6.50
2018-10-11T01:13:51.727Z,5.53
2018-10-11T01:16:19.346Z,8.30
2018-10-11T01:18:46.958Z,8.30
2018-10-11T01:21:14.660Z,6.13
2018-10-11T01:23:42.280Z,6.13
2018-10-11T01:26:09.944Z,5.00
2018-10-11T01:28:37.517Z,4.53
2018-10-11T01:31:10.737Z,6.30
2018-10-11T01:33:38.396Z,7.50
2018-10-11T01:36:06.037Z,7.10
2018-10-11T01:38:33.647Z,3.90
2018-10-11T01:41:01.321Z,6.93
2018-10-11T01:43:28.931Z,8.03
2018-10-11T01:45:56.583Z,5.00
2018-10-11T01:48:24.272Z,7.80
2018-10-11T01:50:51.897Z,4.83
2018-10-11T01:53:19.553Z,5.57
2018-10-11T01:55:47.140Z,6.03
2018-10-11T01:58:14.838Z,5.20
2018-10-11T02:00:42.460Z,7.83
2018-10-11T02:03:10.071Z,5.87
2018-10-11T02:05:37.770Z,5.60
2018-10-11T02:08:05.722Z,4.77
2018-10-11T02:10:33.365Z,5.17
2018-10-11T02:13:01.001Z,5.47
2018-10-11T02:15:28.637Z,6.00
2018-10-11T02:17:57.087Z,6.13
2018-10-11T02:20:24.749Z,5.70
2018-10-11T02:22:52.358Z,6.50
2018-10-11T02:25:20.596Z,3.90
2018-10-11T02:27:48.257Z,4.50
2018-10-11T02:30:15.905Z,4.03
2018-10-11T02:32:43.588Z,5.10
2018-10-11T02:35:12.001Z,10.77
2018-10-11T02:37:40.041Z,5.43
2018-10-11T02:40:07.739Z,7.43
2018-10-11T02:42:35.412Z,5.03
2018-10-11T02:45:03.060Z,7.07
2018-10-11T02:47:30.732Z,4.33
2018-10-11T02:49:58.425Z,5.00
2018-10-11T02:52:26.058Z,5.17
2018-10-11T02:54:53.662Z,4.17
2018-10-11T02:57:32.574Z,5.17
2018-10-11T03:00:01.228Z,4.07
2018-10-11T03:02:28.898Z,4.90
2018-10-11T03:04:56.607Z,6.90
2018-10-11T03:07:25.660Z,11.30
2018-10-11T03:09:53.301Z,4.80
2018-10-11T03:12:20.944Z,8.13
2018-10-11T03:14:48.613Z,5.37
2018-10-11T03:17:16.314Z,6.50
2018-10-11T03:19:44.001Z,7.90
2018-10-11T03:22:12.154Z,4.50
2018-10-11T03:24:39.857Z,4.20
2018-10-11T03:27:07.473Z,4.60
2018-10-11T03:29:35.089Z,4.80
2018-10-11T03:32:02.747Z,5.43
2018-10-11T03:34:30.465Z,6.00
2018-10-11T03:36:59.023Z,5.43
2018-10-11T03:39:27.675Z,4.80
2018-10-11T03:41:56.103Z,6.53
2018-10-11T03:44:23.754Z,4.20
2018-10-11T03:46:51.384Z,5.47
2018-10-11T03:49:19.099Z,9.03
2018-10-11T03:51:46.746Z,5.43
2018-10-11T03:54:14.393Z,4.53
2018-10-11T03:56:42.081Z,4.13
2018-10-11T03:59:09.713Z,4.03
2018-10-11T04:01:37.300Z,4.60
2018-10-11T04:04:04.970Z,5.30
2018-10-11T04:06:32.586Z,5.20
2018-10-11T04:09:00.233Z,5.10
2018-10-11T04:11:27.875Z,7.93
2018-10-11T04:13:56.021Z,5.50
2018-10-11T04:16:23.610Z,8.50
2018-10-11T04:18:51.361Z,4.50
2018-10-11T04:21:18.999Z,4.83
2018-10-11T04:23:46.708Z,4.47
2018-10-11T04:26:14.385Z,5.40
2018-10-11T04:28:42.084Z,7.43
2018-10-11T04:31:09.706Z,10.10
2018-10-11T04:33:37.391Z,5.10
2018-10-11T04:36:05.080Z,9.53
2018-10-11T04:38:32.727Z,4.90
2018-10-11T04:41:00.432Z,7.67
2018-10-11T04:43:28.139Z,4.43
2018-10-11T04:45:55.732Z,7.97
2018-10-11T04:48:23.416Z,4.40
2018-10-11T04:50:51.108Z,6.97
2018-10-11T04:53:18.716Z,9.30
2018-10-11T04:55:46.495Z,4.70
2018-10-11T04:58:14.345Z,4.60
2018-10-11T05:00:47.704Z,4.43
2018-10-11T05:03:15.368Z,5.03
2018-10-11T05:05:46.283Z,4.57
2018-10-11T05:08:13.976Z,7.77
2018-10-11T05:10:41.941Z,8.90
2018-10-11T05:13:09.597Z,4.30
2018-10-11T05:15:37.886Z,4.67
2018-10-11T05:18:06.630Z,6.40
2018-10-11T05:20:34.289Z,4.57
2018-10-11T05:23:02.010Z,5.70
2018-10-11T05:25:29.660Z,5.20
2018-10-11T05:27:57.401Z,20.30
2018-10-11T05:30:25.394Z,6.97
2018-10-11T05:32:53.941Z,15.70
2018-10-11T05:35:21.588Z,17.53
2018-10-11T05:37:49.671Z,11.13
2018-10-11T05:40:17.512Z,13.27
2018-10-11T05:42:46.750Z,21.60
2018-10-11T05:45:17.409Z,7.60
2018-10-11T05:47:47.226Z,5.60
2018-10-11T05:50:14.973Z,16.60
2018-10-11T05:52:43.436Z,12.40
2018-10-11T05:55:11.226Z,19.63
2018-10-11T05:57:40.125Z,10.73
2018-10-11T06:00:11.956Z,11.30
2018-10-11T06:03:03.948Z,7.10
2018-10-11T06:05:40.662Z,7.60
2018-10-11T06:08:14.421Z,7.40
2018-10-11T06:10:46.121Z,11.30
2018-10-11T06:13:14.145Z,6.87
2018-10-11T06:15:43.011Z,9.70
2018-10-11T06:18:11.962Z,11.60
2018-10-11T06:20:41.401Z,6.70
2018-10-11T06:23:11.007Z,29.07
2018-10-11T06:25:41.037Z,27.10
2018-10-11T06:28:08.784Z,28.23
2018-10-11T06:30:37.120Z,17.63
2018-10-11T06:33:05.229Z,16.33
2018-10-11T06:35:32.287Z,27.77
2018-10-11T06:38:00.609Z,18.50
2018-10-11T06:40:28.435Z,26.87
2018-10-11T06:42:56.449Z,14.43
2018-10-11T06:45:24.223Z,20.37
2018-10-11T06:47:55.873Z,30.83
2018-10-11T06:50:23.633Z,15.50
2018-10-11T06:52:51.247Z,26.20
2018-10-11T06:55:18.978Z,20.70
2018-10-11T06:57:46.961Z,14.63
2018-10-11T07:00:14.705Z,20.97
2018-10-11T07:02:51.360Z,17.47
2018-10-11T07:05:19.014Z,25.20
2018-10-11T07:07:46.692Z,21.30
2018-10-11T07:10:14.427Z,12.93
2018-10-11T07:12:42.129Z,14.73
2018-10-11T07:15:13.267Z,14.50
2018-10-11T07:17:41.125Z,15.00
2018-10-11T07:20:08.889Z,15.60
2018-10-11T07:22:36.497Z,17.03
2018-10-11T07:25:04.226Z,16.60
2018-10-11T07:27:31.993Z,27.53
2018-10-11T07:29:59.679Z,25.70
2018-10-11T07:32:27.642Z,25.20
2018-10-11T07:34:55.598Z,18.40
2018-10-11T07:37:25.153Z,19.73
2018-10-11T07:39:54.377Z,27.23
2018-10-11T07:42:24.927Z,21.57
2018-10-11T07:44:57.694Z,17.23
2018-10-11T07:47:32.776Z,19.30
2018-10-11T07:50:01.112Z,18.60
2018-10-11T07:52:30.389Z,21.47
2018-10-11T07:55:10.546Z,20.80
2018-10-11T07:57:38.184Z,16.70
2018-10-11T08:00:06.016Z,23.40
2018-10-11T08:02:33.699Z,23.57
2018-10-11T08:05:01.394Z,24.40
2018-10-11T08:07:30.080Z,17.30
2018-10-11T08:09:57.640Z,17.37
2018-10-11T08:12:25.320Z,19.77
2018-10-11T08:14:52.982Z,18.43
2018-10-11T08:17:20.853Z,26.03
2018-10-11T08:19:48.478Z,18.77
2018-10-11T08:22:16.084Z,30.53
2018-10-11T08:24:43.891Z,24.77
2018-10-11T08:27:11.447Z,23.20
2018-10-11T08:29:39.095Z,22.77
2018-10-11T08:32:06.809Z,32.90
2018-10-11T08:34:34.469Z,27.40
2018-10-11T08:37:02.129Z,28.13
2018-10-11T08:39:29.779Z,31.73
2018-10-11T08:41:57.504Z,27.73
2018-10-11T08:44:26.130Z,31.00
2018-10-11T08:46:53.895Z,25.03
2018-10-11T08:49:21.561Z,26.03
2018-10-11T08:51:49.207Z,38.27
2018-10-11T08:54:22.529Z,24.63
2018-10-11T08:56:50.330Z,26.10
2018-10-11T08:59:18.064Z,32.10
2018-10-11T09:01:45.773Z,33.93
2018-10-11T09:04:13.564Z,25.13
2018-10-11T09:06:41.198Z,42.10
2018-10-11T09:09:09.382Z,27.73
2018-10-11T09:11:37.020Z,34.00
2018-10-11T09:14:04.706Z,31.20
2018-10-11T09:16:32.376Z,30.40
2018-10-11T09:19:00.060Z,27.27
2018-10-11T09:21:27.715Z,27.73
2018-10-11T09:23:55.401Z,29.70
2018-10-11T09:26:23.084Z,31.73
2018-10-11T09:28:50.769Z,32.67
2018-10-11T09:31:18.414Z,29.80
2018-10-11T09:33:46.034Z,31.17
2018-10-11T09:36:13.752Z,27.40
2018-10-11T09:38:41.499Z,25.80
2018-10-11T09:41:09.155Z,27.17
2018-10-11T09:43:36.791Z,25.60
2018-10-11T09:46:04.469Z,26.97
2018-10-11T09:48:32.143Z,27.43
2018-10-11T09:50:59.817Z,26.63
2018-10-11T09:53:27.418Z,28.50
2018-10-11T09:55:55.141Z,30.73
2018-10-11T09:58:22.821Z,29.80
2018-10-11T10:00:56.138Z,34.00
2018-10-11T10:03:23.781Z,24.20
2018-10-11T10:05:51.443Z,30.23
2018-10-11T10:08:19.115Z,27.33
2018-10-11T10:10:46.772Z,28.80
2018-10-11T10:13:14.480Z,33.07
2018-10-11T10:15:42.187Z,35.93
2018-10-11T10:18:09.794Z,31.40
2018-10-11T10:20:37.536Z,75.57
2018-10-11T10:23:05.189Z,45.03
2018-10-11T10:25:33.112Z,32.43
2018-10-11T10:28:00.884Z,36.33
2018-10-11T10:30:34.445Z,45.60
2018-10-11T10:33:02.540Z,35.13
2018-10-11T10:35:30.272Z,30.07
2018-10-11T10:37:59.841Z,29.90
2018-10-11T10:40:27.515Z,37.63
2018-10-11T10:42:55.764Z,53.17
2018-10-11T10:45:23.570Z,28.63
2018-10-11T10:47:51.273Z,35.43
2018-10-11T10:50:18.896Z,29.83
2018-10-11T10:52:46.590Z,28.73
2018-10-11T10:55:14.275Z,31.90
2018-10-11T10:57:41.959Z,38.07
2018-10-11T11:00:09.652Z,31.43
2018-10-11T11:02:37.302Z,27.03
2018-10-11T11:05:05.056Z,24.70
2018-10-11T11:07:32.782Z,29.13
2018-10-11T11:10:00.453Z,28.30
2018-10-11T11:12:28.177Z,31.37
2018-10-11T11:14:55.825Z,31.03
2018-10-11T11:17:23.558Z,36.43
2018-10-11T11:19:52.152Z,26.17
2018-10-11T11:22:19.918Z,31.10
2018-10-11T11:24:47.528Z,28.77
2018-10-11T11:27:15.139Z,28.07
2018-10-11T11:29:42.744Z,33.40
2018-10-11T11:32:10.351Z,27.07
2018-10-11T11:34:37.964Z,27.50
2018-10-11T11:37:05.845Z,22.90
2018-10-11T11:39:33.607Z,26.13
2018-10-11T11:42:01.227Z,24.03
2018-10-11T11:44:28.929Z,21.73
2018-10-11T11:46:56.648Z,27.10
2018-10-11T11:49:24.316Z,31.93
2018-10-11T11:51:51.994Z,24.33
2018-10-11T11:54:20.813Z,26.73
2018-10-11T11:56:49.083Z,20.37
2018-10-11T11:59:16.816Z,20.77
2018-10-11T12:01:44.487Z,26.60
2018-10-11T12:04:12.089Z,20.67
2018-10-11T12:06:39.767Z,26.03
2018-10-11T12:09:09.941Z,22.07
2018-10-11T12:11:37.655Z,20.03
2018-10-11T12:14:05.475Z,17.73
2018-10-11T12:16:33.422Z,22.30
2018-10-11T12:19:01.095Z,26.63
2018-10-11T12:21:28.785Z,22.40
2018-10-11T12:23:58.333Z,19.00
2018-10-11T12:26:26.093Z,26.27
2018-10-11T12:28:55.020Z,24.00
2018-10-11T12:31:22.797Z,21.90
2018-10-11T12:33:50.801Z,23.93
2018-10-11T12:36:18.472Z,25.87
2018-10-11T12:38:46.246Z,32.50
2018-10-11T12:41:13.879Z,21.13
2018-10-11T12:43:41.534Z,22.33
2018-10-11T12:46:09.405Z,28.60
2018-10-11T12:48:37.119Z,22.20
2018-10-11T12:51:04.862Z,18.17
2018-10-11T12:53:32.520Z,20.83
2018-10-11T12:56:00.342Z,26.60
2018-10-11T12:58:28.156Z,20.83
2018-10-11T13:00:55.848Z,25.70
2018-10-11T13:03:23.556Z,40.87
2018-10-11T13:05:51.138Z,40.50
2018-10-11T13:08:18.847Z,42.77
2018-10-11T13:10:46.585Z,29.90
2018-10-11T13:13:14.360Z,26.43
2018-10-11T13:15:42.301Z,32.90
2018-10-11T13:18:09.756Z,27.70
2018-10-11T13:20:37.418Z,28.43
2018-10-11T13:23:07.120Z,31.77
2018-10-11T13:25:32.877Z,24.03
2018-10-11T13:28:00.470Z,22.47
2018-10-11T13:30:28.179Z,24.23
2018-10-11T13:32:55.870Z,26.10
2018-10-11T13:35:23.588Z,19.90
2018-10-11T13:37:51.311Z,20.00
2018-10-11T13:40:19.054Z,21.43
2018-10-11T13:42:46.676Z,29.93
2018-10-11T13:45:14.393Z,26.53
2018-10-11T13:47:44.855Z,35.43
2018-10-11T13:50:09.678Z,22.63
2018-10-11T13:52:37.313Z,24.10
2018-10-11T13:55:09.648Z,20.90
2018-10-11T13:57:34.014Z,22.23
2018-10-11T14:00:01.731Z,15.70
2018-10-11T14:02:29.417Z,21.03
2018-10-11T14:04:57.433Z,20.00
2018-10-11T14:07:25.261Z,14.80
2018-10-11T14:09:52.920Z,19.50
2018-10-11T14:12:20.682Z,17.40
2018-10-11T14:14:48.368Z,23.57
2018-10-11T14:17:15.957Z,18.03
2018-10-11T14:19:43.628Z,12.80
2018-10-11T14:22:11.291Z,16.73
2018-10-11T14:24:39.229Z,15.50
2018-10-11T14:27:06.928Z,17.70
2018-10-11T14:29:34.498Z,15.63
2018-10-11T14:32:02.269Z,14.77
2018-10-11T14:34:30.113Z,18.73
2018-10-11T14:36:57.968Z,17.20
2018-10-11T14:39:26.936Z,13.97
2018-10-11T14:41:55.206Z,16.90
2018-10-11T14:44:22.934Z,19.37
2018-10-11T14:46:50.679Z,18.63
2018-10-11T14:49:18.434Z,18.70
2018-10-11T14:51:48.376Z,15.43
2018-10-11T14:54:14.049Z,19.77
2018-10-11T14:56:41.784Z,15.97
2018-10-11T14:59:09.574Z,14.27
2018-10-11T15:01:37.437Z,14.40
2018-10-11T15:04:05.189Z,14.40
2018-10-11T15:06:32.907Z,15.70
2018-10-11T15:09:00.602Z,15.33
2018-10-11T15:11:28.345Z,13.27
2018-10-11T15:13:55.872Z,15.43
2018-10-11T15:16:23.576Z,16.83
2018-10-11T15:18:51.199Z,13.73
2018-10-11T15:21:18.846Z,16.00
2018-10-11T15:23:46.519Z,13.27
2018-10-11T15:26:14.162Z,14.40
2018-10-11T15:28:41.837Z,13.70
2018-10-11T15:31:09.506Z,21.00
2018-10-11T15:33:37.170Z,18.00
2018-10-11T15:36:04.772Z,14.80
2018-10-11T15:38:32.376Z,19.03
2018-10-11T15:41:00.010Z,13.30
2018-10-11T15:43:27.698Z,14.43
2018-10-11T15:45:55.320Z,14.10
2018-10-11T15:48:23.027Z,16.20
2018-10-11T15:50:50.667Z,13.47
2018-10-11T15:53:18.306Z,18.07
2018-10-11T15:55:46.091Z,15.33
2018-10-11T15:58:13.758Z,16.27
2018-10-11T16:00:41.598Z,15.93
2018-10-11T16:03:09.264Z,31.40
2018-10-11T16:05:37.981Z,15.80
2018-10-11T16:08:05.727Z,15.67
2018-10-11T16:10:33.380Z,15.50
2018-10-11T16:13:01.065Z,15.83
2018-10-11T16:15:28.812Z,14.33
2018-10-11T16:17:56.421Z,18.20
2018-10-11T16:20:24.074Z,19.70
2018-10-11T16:22:51.738Z,18.33
2018-10-11T16:25:19.418Z,21.97
2018-10-11T16:27:47.120Z,20.00
2018-10-11T16:30:14.821Z,18.23
2018-10-11T16:32:42.556Z,21.33
2018-10-11T16:35:10.214Z,19.33
2018-10-11T16:37:37.864Z,22.23
2018-10-11T16:40:05.576Z,17.80
2018-10-11T16:42:33.280Z,19.13
2018-10-11T16:45:00.998Z,17.40
2018-10-11T16:47:28.688Z,16.87
2018-10-11T16:49:56.425Z,18.40
2018-10-11T16:52:24.011Z,24.27
2018-10-11T16:54:51.667Z,20.40
2018-10-11T16:57:19.363Z,27.60
2018-10-11T16:59:47.021Z,21.50
2018-10-11T17:02:14.753Z,21.10
2018-10-11T17:04:42.385Z,27.43
2018-10-11T17:07:10.022Z,24.57
2018-10-11T17:09:37.877Z,58.30
2018-10-11T17:12:05.663Z,20.00
2018-10-11T17:14:33.319Z,18.13
2018-10-11T17:17:01.124Z,19.53
2018-10-11T17:19:28.725Z,28.43
2018-10-11T17:21:56.386Z,27.37
2018-10-11T17:24:24.099Z,27.10
2018-10-11T17:26:51.777Z,24.03
2018-10-11T17:29:19.468Z,22.30
2018-10-11T17:31:47.113Z,24.47
2018-10-11T17:34:15.887Z,33.40
2018-10-11T17:36:43.537Z,21.60
2018-10-11T17:39:11.953Z,32.33
2018-10-11T17:41:40.062Z,32.33
2018-10-11T17:44:08.202Z,45.03
2018-10-11T17:46:35.818Z,41.50
2018-10-11T17:49:03.479Z,31.33
2018-10-11T17:51:31.246Z,52.60
2018-10-11T17:53:58.883Z,28.43
2018-10-11T17:56:26.572Z,45.87
2018-10-11T17:58:54.182Z,32.33
2018-10-11T18:01:21.918Z,28.13
2018-10-11T18:03:49.563Z,25.67
2018-10-11T18:06:17.162Z,26.40
2018-10-11T18:08:44.793Z,18.47
2018-10-11T18:11:12.425Z,26.50
2018-10-11T18:13:40.184Z,27.63
2018-10-11T18:16:07.771Z,47.93
2018-10-11T18:21:09.741Z,43.17
2018-10-11T18:23:37.520Z,24.33
2018-10-11T18:26:05.305Z,21.13
2018-10-11T18:28:32.978Z,23.43
2018-10-11T18:31:00.587Z,31.10
2018-10-11T18:33:28.272Z,22.23
2018-10-11T18:35:55.923Z,21.23
2018-10-11T18:38:23.541Z,28.30
2018-10-11T18:40:51.211Z,31.80
2018-10-11T18:43:18.807Z,48.50
2018-10-11T18:45:46.434Z,28.60
2018-10-11T18:48:14.120Z,31.97
2018-10-11T18:50:41.720Z,27.33
2018-10-11T18:53:09.283Z,37.97
2018-10-11T18:55:36.901Z,30.03
2018-10-11T18:58:04.552Z,24.57
2018-10-11T19:00:32.203Z,31.00
2018-10-11T19:02:59.861Z,29.57
2018-10-11T19:05:27.474Z,27.70
2018-10-11T19:07:55.054Z,21.50
2018-10-11T19:10:22.649Z,23.70
2018-10-11T19:12:50.269Z,28.60
2018-10-11T19:15:17.924Z,26.13
2018-10-11T19:17:45.585Z,31.87
2018-10-11T19:20:13.178Z,31.80
2018-10-11T19:22:40.804Z,20.33
2018-10-11T19:25:08.447Z,17.63
2018-10-11T19:27:36.020Z,24.07
2018-10-11T19:30:03.656Z,21.83
2018-10-11T19:32:31.292Z,28.03
2018-10-11T19:34:58.973Z,26.27
2018-10-11T19:37:26.607Z,18.70
2018-10-11T19:39:54.365Z,20.83
2018-10-11T19:42:21.989Z,25.13
2018-10-11T19:44:49.578Z,21.37
2018-10-11T19:47:17.249Z,19.10
2018-10-11T19:49:44.843Z,21.70
2018-10-11T19:52:12.533Z,15.47
2018-10-11T19:54:40.345Z,32.33
2018-10-11T19:57:07.963Z,24.80
2018-10-11T19:59:35.598Z,16.90
2018-10-11T20:02:03.265Z,18.73
2018-10-11T20:04:30.936Z,18.00
2018-10-11T20:06:58.546Z,24.83
2018-10-11T20:09:26.165Z,22.23
2018-10-11T20:11:53.855Z,18.13
2018-10-11T20:14:21.460Z,28.83
2018-10-11T20:16:49.062Z,23.60
2018-10-11T20:19:16.764Z,19.53
2018-10-11T20:21:44.357Z,18.43
2018-10-11T20:24:11.973Z,24.30
2018-10-11T20:26:39.572Z,19.33
2018-10-11T20:29:07.213Z,21.80
2018-10-11T20:31:34.840Z,24.07
2018-10-11T20:34:02.482Z,14.40
2018-10-11T20:36:30.139Z,20.77
2018-10-11T20:38:57.817Z,14.87
2018-10-11T20:41:25.453Z,17.77
2018-10-11T20:43:53.161Z,14.60
2018-10-11T20:46:20.800Z,17.80
2018-10-11T20:48:48.489Z,18.80
2018-10-11T20:51:16.245Z,15.97
2018-10-11T20:53:43.757Z,16.67
2018-10-11T20:56:11.391Z,18.07
2018-10-11T20:58:39.020Z,27.97
2018-10-11T21:01:06.645Z,19.13
2018-10-11T21:03:34.368Z,14.40
2018-10-11T21:06:01.977Z,15.70
2018-10-11T21:08:29.580Z,15.33
2018-10-11T21:10:57.190Z,12.43
2018-10-11T21:13:24.840Z,16.90
2018-10-11T21:15:52.466Z,14.20
2018-10-11T21:18:20.081Z,17.03
2018-10-11T21:20:47.761Z,15.80
2018-10-11T21:23:15.365Z,12.67
2018-10-11T21:25:43.105Z,14.20
2018-10-11T21:28:10.786Z,15.40
2018-10-11T21:30:38.387Z,20.90
2018-10-11T21:33:06.007Z,13.73
2018-10-11T21:35:33.594Z,15.03
2018-10-11T21:38:01.379Z,18.13
2018-10-11T21:40:28.930Z,17.37
2018-10-11T21:42:56.559Z,14.80
2018-10-11T21:45:24.228Z,17.13
2018-10-11T21:47:51.920Z,14.37
2018-10-11T21:50:19.530Z,17.10
2018-10-11T21:52:47.233Z,13.47
2018-10-11T21:55:14.833Z,17.03
2018-10-11T21:57:42.457Z,18.67
2018-10-11T22:00:10.113Z,17.47
2018-10-11T22:02:37.745Z,13.53
2018-10-11T22:05:05.453Z,14.47
2018-10-11T22:07:33.136Z,16.03
2018-10-11T22:10:00.826Z,19.50
2018-10-11T22:12:28.456Z,12.53
2018-10-11T22:14:56.132Z,12.33
2018-10-11T22:17:23.672Z,16.83
2018-10-11T22:19:51.333Z,12.10
2018-10-11T22:22:19.006Z,13.13
2018-10-11T22:24:46.585Z,16.07
2018-10-11T22:27:14.232Z,12.90
2018-10-11T22:29:41.868Z,12.70
2018-10-11T22:32:09.694Z,11.33
2018-10-11T22:34:37.371Z,13.53
2018-10-11T22:37:05.005Z,17.70
2018-10-11T22:39:32.628Z,14.53
2018-10-11T22:42:00.296Z,11.37
2018-10-11T22:44:27.951Z,14.67
2018-10-11T22:46:55.543Z,18.17
2018-10-11T22:49:23.198Z,17.87
2018-10-11T22:51:50.855Z,15.80
2018-10-11T22:54:18.460Z,10.57
2018-10-11T22:56:46.086Z,12.73
2018-10-11T22:59:13.757Z,13.90
2018-10-11T23:01:41.308Z,15.60
2018-10-11T23:04:08.907Z,11.60
2018-10-11T23:06:36.586Z,12.60
2018-10-11T23:09:06.020Z,10.80
2018-10-11T23:11:33.701Z,11.97
2018-10-11T23:14:01.301Z,11.97
2018-10-11T23:16:28.989Z,13.50
2018-10-11T23:18:56.593Z,12.57
2018-10-11T23:21:24.219Z,12.57
2018-10-11T23:23:51.857Z,13.90
2018-10-11T23:26:19.427Z,12.30
2018-10-11T23:28:47.016Z,12.70
2018-10-11T23:31:14.632Z,14.40
2018-10-11T23:33:42.548Z,11.20
2018-10-11T23:36:10.387Z,13.07
2018-10-11T23:38:38.393Z,13.50
2018-10-11T23:41:06.397Z,10.53
2018-10-11T23:43:34.049Z,13.63
2018-10-11T23:46:01.663Z,11.20
2018-10-11T23:48:29.345Z,11.03
2018-10-11T23:50:56.982Z,13.00
2018-10-11T23:53:24.610Z,11.73
2018-10-11T23:55:52.208Z,9.83
2018-10-11T23:58:19.848Z,13.70
